Time;durP1;ratioP1;P1;durP2;ratioP2;P2;SDS_P1;SDS_P2;PMS_P1;PMS_P2;Temp;Humidity;BMP_temperature;BMP_pressure;BME280_temperature;BME280_humidity;BME280_pressure;Samples;Min_cycle;Max_cycle;Signal;HPM_P1;HPM_P2
2021/05/06 00:30:08;;;;;;;41.00;18.58;;;;;;;;;;5069691;28;20111;-62
2021/05/06 00:32:37;;;;;;;55.92;18.77;;;;;;;;;;5069800;28;20076;-63
2021/05/06 00:35:05;;;;;;;53.15;19.65;;;;;;;;;;5071949;28;20045;-65
2021/05/06 00:37:41;;;;;;;66.35;27.05;;;;;;;;;;5068433;28;20027;-66
2021/05/06 00:40:10;;;;;;;62.88;27.50;;;;;;;;;;5058620;28;20045;-63
2021/05/06 01:04:08;;;;;;;127.28;69.38;;;;;;;;;;5060541;28;20037;-62
2021/05/06 01:06:47;;;;;;;137.85;73.35;;;;;;;;;;5067349;28;20056;-63
2021/05/06 01:09:16;;;;;;;133.43;70.90;;;;;;;;;;5068378;28;20103;-61
2021/05/06 01:12:05;;;;;;;134.93;71.30;;;;;;;;;;5064556;28;20125;-62
2021/05/06 01:14:32;;;;;;;134.50;70.43;;;;;;;;;;5059358;28;20037;-64
2021/05/06 01:16:59;;;;;;;124.55;67.28;;;;;;;;;;5056000;28;20439;-66
2021/05/06 01:19:26;;;;;;;128.48;71.40;;;;;;;;;;5052077;28;20025;-63
2021/05/06 01:21:57;;;;;;;124.00;69.43;;;;;;;;;;5053519;28;20473;-64
2021/05/06 01:24:25;;;;;;;129.90;70.88;;;;;;;;;;5064468;28;20029;-63
2021/05/06 01:27:02;;;;;;;131.30;71.90;;;;;;;;;;5061980;28;20035;-65
2021/05/06 01:32:42;;;;;;;131.65;67.75;;;;;;;;;;4988113;28;20096;-63
2021/05/06 01:35:15;;;;;;;134.35;67.25;;;;;;;;;;4990573;28;20679;-63
2021/05/06 01:38:01;;;;;;;132.70;69.10;;;;;;;;;;5029994;28;20417;-63
2021/05/06 01:43:20;;;;;;;117.50;64.55;;;;;;;;;;5073482;28;20111;-62
2021/05/06 01:49:13;;;;;;;114.55;63.10;;;;;;;;;;5070311;28;20047;-62
2021/05/06 01:59:57;;;;;;;101.68;55.30;;;;;;;;;;5073410;28;20395;-65
2021/05/06 02:02:24;;;;;;;107.40;57.20;;;;;;;;;;5072848;28;20024;-65
2021/05/06 02:04:51;;;;;;;98.90;54.17;;;;;;;;;;5073230;28;20049;-64
2021/05/06 02:07:18;;;;;;;98.00;55.25;;;;;;;;;;5072922;28;20480;-63
2021/05/06 02:09:47;;;;;;;92.38;53.72;;;;;;;;;;5072643;28;20037;-65
2021/05/06 02:12:16;;;;;;;94.70;51.83;;;;;;;;;;5072700;28;20033;-63
2021/05/06 02:14:56;;;;;;;93.25;51.28;;;;;;;;;;5044925;28;20147;-63
2021/05/06 02:17:23;;;;;;;92.03;51.65;;;;;;;;;;5070641;28;20024;-64
2021/05/06 02:19:50;;;;;;;92.60;50.35;;;;;;;;;;5062919;28;20127;-65
2021/05/06 02:22:19;;;;;;;100.95;49.97;;;;;;;;;;5060611;28;20017;-64
2021/05/06 02:24:46;;;;;;;91.57;48.45;;;;;;;;;;5061628;28;20379;-65
2021/05/06 02:27:13;;;;;;;85.78;46.47;;;;;;;;;;5072467;28;20035;-64
2021/05/06 02:29:40;;;;;;;84.60;47.65;;;;;;;;;;5073323;28;20023;-65
2021/05/06 02:32:08;;;;;;;84.53;45.65;;;;;;;;;;5072231;28;20033;-64
2021/05/06 02:34:35;;;;;;;82.72;45.65;;;;;;;;;;5073062;28;20524;-65
2021/05/06 02:37:02;;;;;;;78.70;45.88;;;;;;;;;;5072765;28;20468;-64
2021/05/06 02:39:29;;;;;;;77.78;44.42;;;;;;;;;;5070418;28;20440;-66
2021/05/06 02:41:56;;;;;;;83.28;43.45;;;;;;;;;;5067723;28;20025;-65
2021/05/06 02:44:23;;;;;;;86.18;45.28;;;;;;;;;;5072440;28;20563;-65
2021/05/06 02:46:50;;;;;;;71.35;42.45;;;;;;;;;;5072674;28;20047;-65
2021/05/06 02:49:19;;;;;;;80.43;43.53;;;;;;;;;;5072276;28;20021;-64
2021/05/06 02:51:55;;;;;;;66.45;40.40;;;;;;;;;;5072731;28;20041;-64
2021/05/06 02:54:23;;;;;;;65.70;39.20;;;;;;;;;;5072010;28;20369;-65
2021/05/06 02:56:57;;;;;;;64.72;38.65;;;;;;;;;;5072688;28;20475;-64
2021/05/06 03:04:57;;;;;;;66.35;36.85;;;;;;;;;;5071658;28;20075;-64
2021/05/06 03:07:27;;;;;;;66.32;37.85;;;;;;;;;;5072602;28;20055;-64
2021/05/06 03:10:05;;;;;;;67.40;36.67;;;;;;;;;;5071649;28;20021;-63
2021/05/06 03:23:15;;;;;;;56.72;33.78;;;;;;;;;;5072381;28;20039;-63
2021/05/06 03:25:42;;;;;;;58.88;33.67;;;;;;;;;;5037418;28;20016;-64
2021/05/06 03:28:13;;;;;;;60.60;34.22;;;;;;;;;;5072171;28;20032;-65
2021/05/06 03:31:00;;;;;;;59.25;33.10;;;;;;;;;;5071598;28;20491;-64
2021/05/06 03:41:52;;;;;;;56.50;30.42;;;;;;;;;;5051844;28;20560;-64
2021/05/06 03:49:56;;;;;;;51.65;29.50;;;;;;;;;;5037439;28;20435;-65
2021/05/06 04:14:55;;;;;;;48.20;25.35;;;;;;;;;;5055977;28;20498;-64
2021/05/06 04:17:36;;;;;;;41.53;26.13;;;;;;;;;;5031834;28;20060;-63
2021/05/06 04:25:43;;;;;;;42.30;24.60;;;;;;;;;;5052774;28;20119;-63
2021/05/06 04:38:36;;;;;;;41.40;23.23;;;;;;;;;;5053264;28;20504;-63
2021/05/06 04:41:29;;;;;;;37.95;22.85;;;;;;;;;;5047213;28;20045;-63
2021/05/06 04:55:22;;;;;;;35.03;20.77;;;;;;;;;;5054106;28;20039;-63
2021/05/06 04:58:05;;;;;;;32.67;19.70;;;;;;;;;;5054635;28;20031;-63
2021/05/06 05:03:51;;;;;;;33.47;19.92;;;;;;;;;;4973770;28;20063;-65
2021/05/06 05:06:20;;;;;;;32.53;19.40;;;;;;;;;;4972693;28;20031;-65
2021/05/06 05:08:53;;;;;;;32.60;19.45;;;;;;;;;;5020535;28;20447;-65
2021/05/06 05:24:43;;;;;;;30.42;18.05;;;;;;;;;;5053004;28;20035;-65
2021/05/06 05:27:10;;;;;;;29.38;18.13;;;;;;;;;;5051700;28;20068;-65
2021/05/06 05:29:37;;;;;;;27.38;16.23;;;;;;;;;;5054067;28;20025;-66
2021/05/06 05:32:04;;;;;;;29.30;17.80;;;;;;;;;;5053603;28;20159;-65
2021/05/06 05:34:37;;;;;;;26.20;16.38;;;;;;;;;;5054067;28;20029;-64
2021/05/06 05:37:04;;;;;;;26.67;17.38;;;;;;;;;;5050914;28;20039;-65
2021/05/06 05:42:39;;;;;;;25.50;16.15;;;;;;;;;;5073538;28;20044;-64
2021/05/06 05:55:49;;;;;;;23.20;15.27;;;;;;;;;;5073291;28;20039;-65
2021/05/06 05:58:16;;;;;;;23.98;14.48;;;;;;;;;;5073049;28;20050;-65
2021/05/06 06:00:43;;;;;;;24.05;14.88;;;;;;;;;;5071904;28;20095;-64
2021/05/06 06:03:10;;;;;;;21.40;14.27;;;;;;;;;;5072456;28;20021;-64
2021/05/06 06:05:38;;;;;;;21.58;13.68;;;;;;;;;;5073275;28;20016;-65
2021/05/06 06:08:06;;;;;;;22.27;14.35;;;;;;;;;;5073381;28;20037;-66
2021/05/06 06:10:33;;;;;;;21.45;13.93;;;;;;;;;;5072657;28;20016;-65
2021/05/06 06:13:00;;;;;;;20.60;13.02;;;;;;;;;;5071174;28;20035;-65
2021/05/06 06:18:15;;;;;;;21.25;13.15;;;;;;;;;;5072527;28;20111;-65
2021/05/06 06:20:45;;;;;;;23.10;14.07;;;;;;;;;;5072925;28;20092;-65
2021/05/06 06:23:14;;;;;;;22.35;12.98;;;;;;;;;;5073218;28;20453;-64
2021/05/06 06:25:41;;;;;;;21.95;13.25;;;;;;;;;;5070442;28;20102;-65
2021/05/06 06:28:12;;;;;;;21.85;13.48;;;;;;;;;;5071624;28;20017;-65
2021/05/06 06:30:41;;;;;;;22.05;13.05;;;;;;;;;;5072534;28;20035;-63
2021/05/06 06:33:08;;;;;;;19.17;12.32;;;;;;;;;;5071498;28;20392;-64
2021/05/06 06:35:36;;;;;;;18.92;12.23;;;;;;;;;;5071877;28;20025;-63
2021/05/06 06:38:03;;;;;;;19.60;12.90;;;;;;;;;;5070992;28;20032;-63
2021/05/06 06:40:30;;;;;;;18.73;11.80;;;;;;;;;;5072125;28;20526;-64
2021/05/06 06:42:57;;;;;;;16.80;12.13;;;;;;;;;;5072720;28;20117;-64
2021/05/06 06:45:24;;;;;;;20.92;11.60;;;;;;;;;;5072811;28;20021;-63
2021/05/06 06:47:55;;;;;;;17.50;11.40;;;;;;;;;;5071099;28;20024;-63
2021/05/06 06:50:22;;;;;;;17.63;11.35;;;;;;;;;;5071204;28;20549;-63
2021/05/06 06:52:49;;;;;;;19.05;11.43;;;;;;;;;;5072070;28;20059;-63
2021/05/06 06:55:17;;;;;;;17.17;11.93;;;;;;;;;;5072439;28;20028;-64
2021/05/06 06:57:44;;;;;;;17.05;10.88;;;;;;;;;;5071673;28;20028;-63
2021/05/06 07:00:11;;;;;;;18.08;10.77;;;;;;;;;;5070871;28;20024;-63
2021/05/06 07:02:38;;;;;;;19.25;11.20;;;;;;;;;;5069713;28;20021;-63
2021/05/06 07:05:06;;;;;;;18.50;11.10;;;;;;;;;;5072141;28;20048;-63
2021/05/06 07:07:33;;;;;;;17.70;10.80;;;;;;;;;;5071996;28;20437;-63
2021/05/06 07:10:00;;;;;;;15.68;10.43;;;;;;;;;;5072294;28;20055;-63
2021/05/06 07:12:27;;;;;;;14.63;10.00;;;;;;;;;;5068624;28;20040;-63
2021/05/06 07:14:54;;;;;;;16.35;10.07;;;;;;;;;;5071653;28;20024;-64
2021/05/06 07:17:21;;;;;;;14.50;9.38;;;;;;;;;;5053893;28;20066;-63
2021/05/06 07:19:48;;;;;;;15.43;9.88;;;;;;;;;;5071971;28;20019;-63
2021/05/06 07:22:15;;;;;;;14.68;9.85;;;;;;;;;;5072102;28;20103;-64
2021/05/06 07:24:42;;;;;;;14.57;9.45;;;;;;;;;;5069489;28;20028;-63
2021/05/06 07:27:09;;;;;;;14.80;10.13;;;;;;;;;;5071956;28;20077;-64
2021/05/06 07:29:36;;;;;;;13.43;8.70;;;;;;;;;;5070692;28;20021;-64
2021/05/06 07:32:03;;;;;;;15.00;9.32;;;;;;;;;;5071777;28;20045;-65
2021/05/06 07:34:30;;;;;;;14.77;9.23;;;;;;;;;;5071205;28;20023;-64
2021/05/06 07:36:57;;;;;;;15.40;9.25;;;;;;;;;;5069699;28;20024;-63
2021/05/06 07:39:24;;;;;;;13.32;8.73;;;;;;;;;;5070982;28;20462;-64
2021/05/06 07:41:51;;;;;;;14.55;8.70;;;;;;;;;;5071742;28;20043;-64
2021/05/06 07:44:19;;;;;;;12.48;8.13;;;;;;;;;;5070078;28;20028;-64
2021/05/06 07:46:46;;;;;;;13.55;8.27;;;;;;;;;;5071734;28;20024;-65
2021/05/06 07:49:13;;;;;;;14.27;8.57;;;;;;;;;;5068624;28;20027;-63
2021/05/06 07:51:40;;;;;;;13.65;8.20;;;;;;;;;;5071789;28;20488;-64
2021/05/06 07:54:07;;;;;;;14.27;9.02;;;;;;;;;;5071201;28;20066;-64
2021/05/06 07:56:34;;;;;;;14.90;8.43;;;;;;;;;;5071705;28;20020;-65
2021/05/06 07:59:01;;;;;;;15.82;7.72;;;;;;;;;;5071221;28;20040;-65
2021/05/06 08:01:28;;;;;;;13.48;8.18;;;;;;;;;;5069616;28;20424;-65
2021/05/06 08:03:57;;;;;;;14.07;8.48;;;;;;;;;;5070204;28;20029;-64
2021/05/06 08:06:24;;;;;;;11.88;8.18;;;;;;;;;;5071339;28;20017;-65
2021/05/06 08:08:52;;;;;;;11.52;7.20;;;;;;;;;;5071625;28;20029;-65
2021/05/06 08:11:19;;;;;;;12.15;7.38;;;;;;;;;;5070275;28;20028;-64
2021/05/06 08:13:47;;;;;;;13.80;7.68;;;;;;;;;;5070120;28;20078;-64
2021/05/06 08:16:14;;;;;;;13.32;7.57;;;;;;;;;;5071188;28;20108;-64
2021/05/06 08:18:41;;;;;;;11.70;7.75;;;;;;;;;;5070032;28;20096;-64
2021/05/06 08:21:08;;;;;;;13.55;7.22;;;;;;;;;;5071193;28;20108;-65
2021/05/06 08:23:36;;;;;;;10.73;7.07;;;;;;;;;;5070704;28;20027;-64
2021/05/06 08:26:03;;;;;;;10.93;7.10;;;;;;;;;;5069800;28;20013;-65
2021/05/06 08:28:30;;;;;;;10.43;6.75;;;;;;;;;;5071366;28;20020;-63
2021/05/06 08:30:57;;;;;;;12.98;7.28;;;;;;;;;;5071244;28;20534;-64
2021/05/06 08:33:24;;;;;;;9.95;6.50;;;;;;;;;;5071310;28;20068;-64
2021/05/06 08:35:51;;;;;;;9.95;6.28;;;;;;;;;;5069791;28;20067;-63
2021/05/06 08:38:18;;;;;;;9.93;6.72;;;;;;;;;;5069983;28;20024;-64
2021/05/06 08:40:46;;;;;;;8.90;6.32;;;;;;;;;;5073692;28;20037;-64
2021/05/06 08:43:13;;;;;;;10.45;6.57;;;;;;;;;;5074739;28;20025;-64
2021/05/06 08:45:47;;;;;;;11.40;6.15;;;;;;;;;;5073775;28;20553;-63
2021/05/06 08:48:17;;;;;;;12.82;7.03;;;;;;;;;;5072512;28;20032;-62
2021/05/06 08:50:47;;;;;;;10.05;6.25;;;;;;;;;;5074230;28;20476;-63
2021/05/06 08:53:17;;;;;;;9.95;6.22;;;;;;;;;;5074673;28;20036;-62
2021/05/06 08:55:44;;;;;;;9.00;5.97;;;;;;;;;;5075223;28;20105;-64
2021/05/06 08:58:11;;;;;;;9.70;5.97;;;;;;;;;;5074834;28;20021;-63
2021/05/06 09:00:38;;;;;;;8.68;5.90;;;;;;;;;;5074833;28;20496;-62
2021/05/06 09:03:06;;;;;;;10.18;5.70;;;;;;;;;;5074733;28;20040;-62
2021/05/06 09:05:36;;;;;;;8.57;5.43;;;;;;;;;;5074923;28;20024;-62
2021/05/06 09:08:04;;;;;;;6.78;4.90;;;;;;;;;;5074872;28;20100;-63
2021/05/06 09:10:36;;;;;;;8.90;5.35;;;;;;;;;;5074406;28;20020;-64
2021/05/06 09:13:04;;;;;;;10.45;5.25;;;;;;;;;;5075028;28;20035;-63
2021/05/06 09:15:31;;;;;;;8.60;4.85;;;;;;;;;;5074258;28;20095;-63
2021/05/06 09:17:58;;;;;;;7.80;4.97;;;;;;;;;;5074636;28;20078;-63
2021/05/06 09:20:26;;;;;;;7.55;4.95;;;;;;;;;;5074199;28;20021;-63
2021/05/06 09:22:55;;;;;;;8.18;5.60;;;;;;;;;;5074610;28;20511;-62
2021/05/06 09:25:31;;;;;;;7.80;5.70;;;;;;;;;;5074010;28;20453;-63
2021/05/06 09:28:04;;;;;;;8.45;4.93;;;;;;;;;;5073048;28;20028;-62
2021/05/06 09:30:32;;;;;;;7.10;4.65;;;;;;;;;;5073923;28;20021;-63
2021/05/06 09:33:05;;;;;;;7.18;4.60;;;;;;;;;;5074501;28;20059;-63
2021/05/06 09:35:43;;;;;;;6.30;4.50;;;;;;;;;;5073992;28;20116;-63
2021/05/06 09:38:30;;;;;;;6.28;4.38;;;;;;;;;;5074343;28;20033;-63
2021/05/06 09:41:01;;;;;;;7.85;4.97;;;;;;;;;;5073527;28;20551;-63
2021/05/06 09:43:30;;;;;;;9.25;4.75;;;;;;;;;;5074453;28;20483;-63
2021/05/06 09:45:58;;;;;;;7.10;4.95;;;;;;;;;;5073719;28;20028;-63
2021/05/06 09:48:25;;;;;;;7.55;4.93;;;;;;;;;;5074261;28;20082;-62
2021/05/06 09:51:04;;;;;;;7.13;4.47;;;;;;;;;;5072760;28;20032;-63
2021/05/06 09:53:33;;;;;;;7.45;4.18;;;;;;;;;;5074352;28;20522;-63
2021/05/06 09:56:04;;;;;;;6.97;4.18;;;;;;;;;;5073817;28;20020;-62
2021/05/06 09:58:33;;;;;;;6.72;4.50;;;;;;;;;;5073902;28;20464;-63
2021/05/06 10:01:10;;;;;;;9.18;4.13;;;;;;;;;;5073831;28;20361;-63
2021/05/06 10:03:37;;;;;;;6.13;4.32;;;;;;;;;;5073536;28;20107;-63
2021/05/06 10:06:16;;;;;;;6.43;4.07;;;;;;;;;;5073865;28;20024;-63
2021/05/06 10:08:43;;;;;;;7.50;4.03;;;;;;;;;;5073258;28;20029;-63
2021/05/06 10:11:11;;;;;;;5.85;3.75;;;;;;;;;;5073636;28;20020;-63
2021/05/06 10:13:41;;;;;;;6.97;4.05;;;;;;;;;;5073412;28;20415;-63
2021/05/06 10:16:12;;;;;;;7.57;4.10;;;;;;;;;;5073451;28;20043;-62
2021/05/06 10:18:41;;;;;;;6.13;3.80;;;;;;;;;;5073106;28;20035;-63
2021/05/06 10:21:15;;;;;;;7.65;3.53;;;;;;;;;;5073436;28;20028;-63
2021/05/06 10:23:44;;;;;;;5.90;3.92;;;;;;;;;;5073119;28;20040;-63
2021/05/06 10:26:11;;;;;;;5.75;3.65;;;;;;;;;;5073466;28;20645;-63
2021/05/06 10:28:38;;;;;;;6.03;3.88;;;;;;;;;;5072902;28;20380;-62
2021/05/06 10:31:09;;;;;;;5.80;3.88;;;;;;;;;;5073176;28;20024;-62
2021/05/06 10:33:38;;;;;;;5.53;3.55;;;;;;;;;;5072828;28;20514;-63
2021/05/06 10:36:05;;;;;;;4.93;3.45;;;;;;;;;;5073244;28;20032;-62
2021/05/06 10:38:38;;;;;;;6.57;3.72;;;;;;;;;;5072630;28;20027;-63
2021/05/06 10:41:29;;;;;;;4.75;3.50;;;;;;;;;;5073057;28;20040;-64
2021/05/06 10:43:58;;;;;;;6.32;3.78;;;;;;;;;;5072792;28;20024;-63
2021/05/06 10:46:45;;;;;;;6.18;3.10;;;;;;;;;;5073104;28;20031;-63
2021/05/06 10:49:12;;;;;;;5.88;3.47;;;;;;;;;;5059157;28;20064;-62
2021/05/06 10:51:40;;;;;;;6.30;3.33;;;;;;;;;;5072519;28;20036;-63
2021/05/06 10:54:26;;;;;;;5.97;3.85;;;;;;;;;;5072945;28;20040;-62
2021/05/06 10:56:54;;;;;;;5.03;3.03;;;;;;;;;;5072904;28;20031;-62
2021/05/06 10:59:31;;;;;;;6.88;3.75;;;;;;;;;;5072837;28;20031;-63
2021/05/06 11:01:59;;;;;;;5.07;3.67;;;;;;;;;;5072012;28;20102;-62
2021/05/06 11:04:39;;;;;;;5.88;3.20;;;;;;;;;;5072641;28;20496;-63
2021/05/06 11:07:24;;;;;;;6.13;3.97;;;;;;;;;;5072239;28;20025;-63
2021/05/06 11:09:53;;;;;;;6.10;3.63;;;;;;;;;;5072728;28;20043;-62
2021/05/06 11:12:22;;;;;;;7.43;3.70;;;;;;;;;;5071914;28;20391;-63
2021/05/06 11:15:02;;;;;;;5.15;3.25;;;;;;;;;;5072617;28;20051;-63
2021/05/06 11:17:42;;;;;;;5.60;3.40;;;;;;;;;;5072128;28;20114;-63
2021/05/06 11:20:12;;;;;;;6.00;3.28;;;;;;;;;;5072528;28;20480;-62
2021/05/06 11:22:51;;;;;;;6.38;3.60;;;;;;;;;;5071831;28;20044;-63
2021/05/06 11:27:57;;;;;;;3.85;2.90;;;;;;;;;;5071920;28;20381;-62
2021/05/06 11:30:42;;;;;;;6.43;3.65;;;;;;;;;;5072435;28;20040;-63
2021/05/06 11:33:21;;;;;;;7.97;3.88;;;;;;;;;;5071485;28;20445;-63
2021/05/06 11:36:10;;;;;;;5.07;3.45;;;;;;;;;;5072507;28;20103;-62
2021/05/06 11:38:37;;;;;;;6.50;3.67;;;;;;;;;;5071822;28;20423;-62
2021/05/06 11:41:09;;;;;;;4.93;3.33;;;;;;;;;;5072278;28;20052;-63
2021/05/06 11:43:37;;;;;;;5.72;3.60;;;;;;;;;;5072010;28;20028;-64
2021/05/06 11:46:04;;;;;;;5.32;3.08;;;;;;;;;;5072308;28;20029;-63
2021/05/06 11:48:45;;;;;;;5.75;3.15;;;;;;;;;;5071686;28;20066;-63
2021/05/06 11:51:23;;;;;;;8.98;3.63;;;;;;;;;;5072198;28;20024;-62
2021/05/06 11:54:08;;;;;;;5.43;3.45;;;;;;;;;;5071697;28;20024;-63
2021/05/06 11:56:38;;;;;;;5.72;3.30;;;;;;;;;;5072246;28;20024;-63
2021/05/06 11:59:06;;;;;;;5.25;3.30;;;;;;;;;;5070267;28;20535;-63
2021/05/06 12:01:33;;;;;;;4.72;3.05;;;;;;;;;;5069725;28;20472;-62
2021/05/06 12:04:00;;;;;;;4.68;3.20;;;;;;;;;;5058446;28;20028;-63
2021/05/06 12:06:37;;;;;;;4.80;2.67;;;;;;;;;;5059638;28;20017;-62
2021/05/06 12:09:05;;;;;;;5.18;3.25;;;;;;;;;;5058012;28;20087;-62
2021/05/06 12:11:33;;;;;;;5.60;2.92;;;;;;;;;;5048866;28;20020;-62
2021/05/06 12:14:01;;;;;;;4.72;2.90;;;;;;;;;;5053783;28;20036;-63
2021/05/06 12:16:28;;;;;;;8.13;3.00;;;;;;;;;;5059403;28;20052;-62
2021/05/06 12:18:57;;;;;;;6.47;3.60;;;;;;;;;;5058273;28;20032;-61
2021/05/06 12:21:28;;;;;;;7.82;3.05;;;;;;;;;;5063721;28;20100;-62
2021/05/06 12:23:57;;;;;;;5.90;3.72;;;;;;;;;;5057548;28;20017;-62
2021/05/06 12:26:24;;;;;;;6.63;3.33;;;;;;;;;;5060835;28;20447;-62
2021/05/06 12:28:52;;;;;;;4.88;3.10;;;;;;;;;;5063944;28;20055;-62
2021/05/06 12:31:19;;;;;;;5.78;3.05;;;;;;;;;;5061661;28;20034;-62
2021/05/06 12:33:46;;;;;;;8.10;3.17;;;;;;;;;;5060061;28;20024;-61
2021/05/06 12:36:13;;;;;;;5.90;3.25;;;;;;;;;;5069170;28;20074;-62
2021/05/06 12:38:42;;;;;;;5.15;2.78;;;;;;;;;;5060467;28;20032;-62
2021/05/06 12:41:10;;;;;;;9.63;3.47;;;;;;;;;;5071534;28;20044;-63
2021/05/06 12:43:45;;;;;;;7.00;2.90;;;;;;;;;;5056385;28;20025;-63
2021/05/06 12:46:12;;;;;;;4.47;2.78;;;;;;;;;;5072361;28;20020;-63
2021/05/06 12:48:42;;;;;;;6.30;3.22;;;;;;;;;;5074798;28;20082;-63
2021/05/06 12:51:10;;;;;;;5.85;2.50;;;;;;;;;;5074217;28;20029;-62
2021/05/06 12:53:38;;;;;;;6.47;3.35;;;;;;;;;;5069935;28;20044;-63
2021/05/06 12:56:05;;;;;;;10.00;3.05;;;;;;;;;;5069417;28;20025;-62
2021/05/06 12:58:35;;;;;;;9.57;3.10;;;;;;;;;;5070829;28;20389;-62
2021/05/06 13:01:04;;;;;;;7.97;3.05;;;;;;;;;;5054281;28;20472;-62
2021/05/06 13:03:33;;;;;;;7.45;2.83;;;;;;;;;;5037464;28;20022;-61
2021/05/06 13:06:09;;;;;;;17.50;3.03;;;;;;;;;;5062461;28;20048;-61
2021/05/06 13:08:40;;;;;;;7.35;2.78;;;;;;;;;;5060951;28;20141;-61
2021/05/06 13:11:09;;;;;;;5.63;2.77;;;;;;;;;;5074028;28;20056;-60
2021/05/06 13:13:44;;;;;;;7.40;2.67;;;;;;;;;;5072230;28;20317;-61
2021/05/06 13:16:19;;;;;;;7.90;2.72;;;;;;;;;;5065223;28;20017;-60
2021/05/06 13:19:01;;;;;;;5.55;2.45;;;;;;;;;;5053737;28;20021;-65
2021/05/06 13:21:28;;;;;;;5.38;2.63;;;;;;;;;;5056573;28;20021;-66
2021/05/06 13:23:56;;;;;;;14.35;2.47;;;;;;;;;;5053647;28;20025;-65
2021/05/06 13:26:40;;;;;;;12.20;3.08;;;;;;;;;;5055420;28;20017;-65
2021/05/06 13:29:08;;;;;;;7.25;3.22;;;;;;;;;;5053109;28;20116;-64
2021/05/06 13:31:36;;;;;;;9.85;4.25;;;;;;;;;;5053833;28;20087;-64
2021/05/06 13:34:11;;;;;;;18.70;5.10;;;;;;;;;;5058875;28;20027;-64
2021/05/06 13:36:38;;;;;;;26.13;5.78;;;;;;;;;;5073704;28;20021;-63
2021/05/06 13:39:07;;;;;;;21.15;7.38;;;;;;;;;;5046191;28;20028;-62
2021/05/06 13:41:35;;;;;;;15.07;7.40;;;;;;;;;;5066977;28;20510;-62
2021/05/06 13:44:03;;;;;;;21.15;8.20;;;;;;;;;;5053273;28;20034;-64
2021/05/06 13:46:31;;;;;;;19.70;8.70;;;;;;;;;;5059018;28;20044;-64
2021/05/06 13:48:58;;;;;;;19.35;8.27;;;;;;;;;;5054850;28;20472;-63
2021/05/06 13:51:26;;;;;;;21.67;9.57;;;;;;;;;;5061039;28;20028;-64
2021/05/06 13:53:54;;;;;;;27.83;10.13;;;;;;;;;;5069612;28;20514;-65
2021/05/06 13:56:21;;;;;;;21.58;10.50;;;;;;;;;;5062115;28;20021;-63
2021/05/06 13:58:52;;;;;;;18.83;10.15;;;;;;;;;;5064644;28;20027;-66
2021/05/06 14:01:19;;;;;;;26.20;10.23;;;;;;;;;;5059130;28;20021;-63
2021/05/06 14:03:46;;;;;;;22.30;10.40;;;;;;;;;;5060226;28;20017;-63
2021/05/06 14:06:14;;;;;;;19.98;9.02;;;;;;;;;;5068962;28;20476;-64
2021/05/06 14:08:41;;;;;;;22.60;12.05;;;;;;;;;;5063715;28;20032;-67
2021/05/06 14:11:08;;;;;;;27.50;12.95;;;;;;;;;;5054533;28;20064;-62
2021/05/06 14:13:35;;;;;;;30.02;13.57;;;;;;;;;;5061542;28;20052;-64
2021/05/06 14:16:02;;;;;;;30.17;13.38;;;;;;;;;;5059171;28;20017;-64
2021/05/06 14:18:29;;;;;;;37.38;14.38;;;;;;;;;;5058469;28;20028;-64
2021/05/06 14:21:02;;;;;;;27.75;14.30;;;;;;;;;;5052727;28;20017;-64
2021/05/06 14:23:28;;;;;;;;;;;;;;;;;;5053294;28;20048;-61
2021/05/06 14:25:55;;;;;;;32.92;14.90;;;;;;;;;;5051086;28;19912;-62
2021/05/06 14:28:23;;;;;;;31.20;17.30;;;;;;;;;;5034261;28;20024;-61
2021/05/06 14:30:50;;;;;;;40.60;21.50;;;;;;;;;;5053178;28;20037;-61
2021/05/06 14:33:17;;;;;;;48.83;22.33;;;;;;;;;;5050161;28;20369;-58
2021/05/06 14:35:44;;;;;;;47.97;22.27;;;;;;;;;;5072860;28;20027;-60
2021/05/06 14:38:11;;;;;;;44.95;23.35;;;;;;;;;;5069791;28;20032;-59
2021/05/06 14:40:41;;;;;;;50.30;25.63;;;;;;;;;;5054730;28;20047;-61
2021/05/06 14:43:09;;;;;;;48.88;23.83;;;;;;;;;;5072444;28;20035;-60
2021/05/06 14:45:36;;;;;;;53.15;27.42;;;;;;;;;;5071814;28;20059;-64
2021/05/06 14:48:04;;;;;;;56.55;28.80;;;;;;;;;;5071873;28;20028;-64
2021/05/06 14:50:32;;;;;;;58.08;31.08;;;;;;;;;;5070339;28;20029;-64
2021/05/06 14:52:59;;;;;;;65.18;34.25;;;;;;;;;;5064670;28;20119;-64
2021/05/06 14:55:26;;;;;;;67.13;33.90;;;;;;;;;;5067690;28;20021;-65
2021/05/06 14:57:54;;;;;;;59.40;31.35;;;;;;;;;;5050980;28;20067;-65
2021/05/06 15:00:21;;;;;;;68.50;37.97;;;;;;;;;;5038204;28;20423;-64
2021/05/06 15:02:49;;;;;;;89.40;47.83;;;;;;;;;;5060285;28;20012;-67
2021/05/06 15:05:17;;;;;;;153.52;54.10;;;;;;;;;;5062456;28;20017;-66
2021/05/06 15:07:45;;;;;;;139.93;53.13;;;;;;;;;;5044551;28;20032;-64
2021/05/06 15:10:12;;;;;;;224.70;64.75;;;;;;;;;;5044245;28;20069;-64
2021/05/06 15:12:39;;;;;;;281.40;74.05;;;;;;;;;;5060310;28;20147;-64
2021/05/06 15:15:07;;;;;;;267.50;73.97;;;;;;;;;;5065750;28;20024;-65
2021/05/06 15:17:34;;;;;;;285.48;82.07;;;;;;;;;;5070977;28;20031;-64
2021/05/06 15:20:01;;;;;;;334.88;83.57;;;;;;;;;;5070756;28;20074;-65
2021/05/06 15:22:28;;;;;;;293.30;81.80;;;;;;;;;;5062422;28;20541;-65
2021/05/06 15:24:55;;;;;;;275.80;83.70;;;;;;;;;;5062751;28;20029;-65
2021/05/06 15:27:22;;;;;;;288.00;87.45;;;;;;;;;;5068781;28;20027;-66
2021/05/06 15:29:49;;;;;;;281.73;72.75;;;;;;;;;;5052315;28;20035;-64
2021/05/06 15:32:16;;;;;;;266.88;74.65;;;;;;;;;;5070596;28;20064;-64
2021/05/06 15:34:43;;;;;;;272.10;75.55;;;;;;;;;;5071590;28;20107;-65
2021/05/06 15:37:10;;;;;;;240.90;77.40;;;;;;;;;;5068904;28;20817;-65
2021/05/06 15:39:38;;;;;;;238.98;74.13;;;;;;;;;;5069981;28;20070;-66
2021/05/06 15:42:05;;;;;;;238.18;81.80;;;;;;;;;;5070817;28;20025;-67
2021/05/06 15:44:32;;;;;;;229.20;76.05;;;;;;;;;;5071296;28;20104;-64
2021/05/06 15:47:04;;;;;;;200.77;71.90;;;;;;;;;;5056740;28;20028;-65
2021/05/06 15:49:35;;;;;;;217.60;71.07;;;;;;;;;;5048422;28;20029;-65
2021/05/06 15:52:03;;;;;;;237.07;77.45;;;;;;;;;;5063911;28;20033;-63
2021/05/06 15:54:30;;;;;;;229.13;77.60;;;;;;;;;;5070597;28;20074;-62
2021/05/06 15:56:58;;;;;;;232.98;77.25;;;;;;;;;;5065309;28;20108;-64
2021/05/06 15:59:25;;;;;;;212.02;74.75;;;;;;;;;;5055424;28;20121;-64
2021/05/06 16:01:54;;;;;;;215.48;78.68;;;;;;;;;;5050730;28;20519;-65
2021/05/06 16:04:28;;;;;;;228.93;83.35;;;;;;;;;;5058070;28;20484;-63
2021/05/06 16:06:55;;;;;;;201.77;75.60;;;;;;;;;;5070761;28;20070;-67
2021/05/06 16:09:22;;;;;;;188.68;64.82;;;;;;;;;;5043047;28;20079;-64
2021/05/06 16:11:50;;;;;;;183.68;66.13;;;;;;;;;;5070569;28;20060;-65
2021/05/06 16:14:17;;;;;;;170.82;70.25;;;;;;;;;;5058635;28;20083;-64
2021/05/06 16:16:44;;;;;;;160.35;65.35;;;;;;;;;;5055479;28;20016;-64
2021/05/06 16:19:11;;;;;;;183.70;67.70;;;;;;;;;;5052051;28;20021;-64
2021/05/06 16:21:38;;;;;;;172.02;69.32;;;;;;;;;;5052830;28;20020;-63
2021/05/06 16:24:06;;;;;;;181.13;70.25;;;;;;;;;;5051329;28;20036;-65
2021/05/06 16:26:34;;;;;;;176.63;67.22;;;;;;;;;;5033093;28;20025;-64
2021/05/06 16:29:01;;;;;;;164.68;66.22;;;;;;;;;;5053365;28;20040;-64
2021/05/06 16:31:29;;;;;;;156.25;65.03;;;;;;;;;;5053164;28;20032;-64
2021/05/06 16:33:58;;;;;;;155.45;61.92;;;;;;;;;;5037164;28;20027;-63
2021/05/06 16:41:28;;;;;;;154.02;64.82;;;;;;;;;;5050926;28;20128;-63
2021/05/06 16:44:03;;;;;;;148.90;64.47;;;;;;;;;;5068177;28;20021;-65
2021/05/06 16:46:30;;;;;;;160.50;70.63;;;;;;;;;;5053899;28;20017;-65
2021/05/06 16:48:57;;;;;;;139.57;59.95;;;;;;;;;;5071018;28;20021;-65
2021/05/06 16:51:24;;;;;;;144.50;64.45;;;;;;;;;;5070643;28;20020;-65
2021/05/06 16:53:52;;;;;;;158.93;71.30;;;;;;;;;;5053132;28;20040;-65
2021/05/06 16:56:19;;;;;;;156.57;71.82;;;;;;;;;;5063944;28;20017;-65
2021/05/06 16:58:46;;;;;;;175.70;77.25;;;;;;;;;;5064196;28;20025;-65
2021/05/06 17:01:13;;;;;;;172.63;75.25;;;;;;;;;;5072476;28;20480;-64
2021/05/06 17:03:43;;;;;;;191.32;81.63;;;;;;;;;;5074114;28;20028;-66
2021/05/06 17:06:10;;;;;;;187.93;80.32;;;;;;;;;;5074525;28;20020;-65
2021/05/06 17:08:37;;;;;;;190.80;81.07;;;;;;;;;;5073308;28;20032;-65
2021/05/06 17:11:04;;;;;;;202.60;86.45;;;;;;;;;;5074481;28;20020;-66
2021/05/06 17:13:31;;;;;;;185.88;82.88;;;;;;;;;;5073796;28;20040;-65
2021/05/06 17:15:58;;;;;;;187.32;80.35;;;;;;;;;;5056240;28;20082;-65
2021/05/06 17:18:25;;;;;;;182.32;81.57;;;;;;;;;;5055299;28;20027;-64
2021/05/06 17:20:53;;;;;;;179.25;79.05;;;;;;;;;;5074663;28;20017;-66
2021/05/06 17:23:20;;;;;;;175.45;77.00;;;;;;;;;;5073773;28;20407;-65
2021/05/06 17:25:48;;;;;;;178.60;77.40;;;;;;;;;;5074293;28;20025;-65
2021/05/06 17:28:14;;;;;;;172.25;75.47;;;;;;;;;;5073808;28;20025;-65
2021/05/06 17:30:41;;;;;;;165.30;75.22;;;;;;;;;;5074199;28;20048;-65
2021/05/06 17:33:09;;;;;;;169.40;76.75;;;;;;;;;;5071277;28;20032;-64
2021/05/06 17:35:36;;;;;;;169.57;77.43;;;;;;;;;;5064344;28;20029;-65
2021/05/06 17:38:05;;;;;;;164.35;75.88;;;;;;;;;;5073687;28;20032;-65
2021/05/06 17:40:32;;;;;;;165.10;75.95;;;;;;;;;;5061365;28;20079;-65
2021/05/06 17:42:59;;;;;;;158.35;73.60;;;;;;;;;;5074179;28;20032;-65
2021/05/06 17:45:26;;;;;;;162.07;76.80;;;;;;;;;;5073164;28;20021;-65